PWSweather.com
Personal Weather Stations
Station Observations
KTXPLANO70
Kemper Estates, Plano, TX

Kemper EstatesPlano, TX

Lat: 33.0674, Lon: -96.7659

Elevation: 737

Station Type: Davis Vantage Pro2

http://www.dallasdawg.com

Latest ConditionsUpdated 7:10:01 PM CDT Wednesday, Mar 20, 2019
Currently Today's Max Today's Min Today's Average
Temperature 61.6°F16.4°C 65.7°F18.7°C 52.2°F11.2°C 58.3°F14.6°C
Dew Point 38.8°F3.8°C 45.3°F7.4°C 35.8°F2.1°C 41.9°F5.5°C
Winds 5.8 mph NW9.3 kmh NW 9.2 mph -14.8 kmh - - 3.5 mph 5.6 kmh
Wind Gusts 8.1 mph13.0 kmh 19.6 mph31.5 kmh - -
Humidity 43% 69% 35% 55%
Pressure 30.19 in1022.4 mb 30.29 in1025.7 mb 30.18 in1022.0 mb -
Hour Temp Dew Point Humidity Winds Wind Gusts Pressure Precip Precip Rate Daily Precip Total
07:10 PM 61.6°F16.4°C 38.8°F3.8°C 43% 5.8 mph NW9.3 kmh NW 8.1 mph13.0 kmh 30.19 in1022.4 mb - 0.00 in0.0 mm 0.00 in0.0 mm
07:00 PM 62.0°F16.7°C 38.6°F3.7°C 42% 4.6 mph W7.4 kmh W 9.2 mph14.8 kmh 30.19 in1022.4 mb - 0.00 in0.0 mm 0.00 in0.0 mm
06:55 PM 62.2°F16.8°C 38.8°F3.8°C 42% 5.8 mph NW9.3 kmh NW 11.5 mph18.5 kmh 30.19 in1022.4 mb - 0.00 in0.0 mm 0.00 in0.0 mm
06:50 PM 62.5°F16.9°C 38.5°F3.6°C 41% 4.6 mph NW7.4 kmh NW 11.5 mph18.5 kmh 30.19 in1022.4 mb - 0.00 in0.0 mm 0.00 in0.0 mm
06:45 PM 62.8°F17.1°C 38.1°F3.4°C 40% 3.5 mph WNW5.6 kmh WNW 8.1 mph13.0 kmh 30.19 in1022.4 mb - 0.00 in0.0 mm 0.00 in0.0 mm
06:40 PM 63.0°F17.2°C 38.9°F3.8°C 41% 4.6 mph NW7.4 kmh NW 5.8 mph9.3 kmh 30.19 in1022.4 mb - 0.00 in0.0 mm 0.00 in0.0 mm
06:35 PM 63.2°F17.3°C 39.1°F3.9°C 41% 4.6 mph NW7.4 kmh NW 9.2 mph14.8 kmh 30.19 in1022.4 mb - 0.00 in0.0 mm 0.00 in0.0 mm
06:30 PM 63.1°F17.3°C 38.4°F3.6°C 40% 5.8 mph WNW9.3 kmh WNW 8.1 mph13.0 kmh 30.19 in1022.4 mb - 0.00 in0.0 mm 0.00 in0.0 mm
06:25 PM 63.4°F17.4°C 38.0°F3.3°C 39% 3.5 mph NW5.6 kmh NW 8.1 mph13.0 kmh 30.19 in1022.4 mb - 0.00 in0.0 mm 0.00 in0.0 mm
06:20 PM 63.7°F17.6°C 37.6°F3.1°C 38% 4.6 mph WNW7.4 kmh WNW 5.8 mph9.3 kmh 30.19 in1022.4 mb - 0.00 in0.0 mm 0.00 in0.0 mm
06:15 PM 63.9°F17.7°C 37.8°F3.2°C 38% 4.6 mph W7.4 kmh W 6.9 mph11.1 kmh 30.19 in1022.4 mb - 0.00 in0.0 mm 0.00 in0.0 mm
06:10 PM 64.1°F17.8°C 35.8°F2.1°C 35% 6.9 mph NW11.1 kmh NW 10.4 mph16.7 kmh 30.19 in1022.4 mb - 0.00 in0.0 mm 0.00 in0.0 mm
06:00 PM 64.1°F17.8°C 38.6°F3.7°C 39% 4.6 mph NW7.4 kmh NW 12.7 mph20.4 kmh 30.19 in1022.4 mb - 0.00 in0.0 mm 0.00 in0.0 mm
05:55 PM 64.1°F17.8°C 38.6°F3.7°C 39% 6.9 mph NW11.1 kmh NW 9.2 mph14.8 kmh 30.19 in1022.4 mb - 0.00 in0.0 mm 0.00 in0.0 mm
05:50 PM 64.2°F17.9°C 36.0°F2.2°C 35% 5.8 mph WNW9.3 kmh WNW 6.9 mph11.1 kmh 30.19 in1022.4 mb - 0.00 in0.0 mm 0.00 in0.0 mm
05:45 PM 64.4°F18.0°C 38.2°F3.4°C 38% 3.5 mph W5.6 kmh W 8.1 mph13.0 kmh 30.19 in1022.4 mb - 0.00 in0.0 mm 0.00 in0.0 mm
05:40 PM 65.0°F18.3°C 38.1°F3.4°C 37% 4.6 mph W7.4 kmh W 4.6 mph7.4 kmh 30.19 in1022.4 mb - 0.00 in0.0 mm 0.00 in0.0 mm
05:35 PM 65.0°F18.3°C 40.7°F4.8°C 41% 2.3 mph W3.7 kmh W 9.2 mph14.8 kmh 30.19 in1022.4 mb - 0.00 in0.0 mm 0.00 in0.0 mm
05:30 PM 65.0°F18.3°C 40.1°F4.5°C 40% 4.6 mph WSW7.4 kmh WSW 6.9 mph11.1 kmh 30.19 in1022.4 mb - 0.00 in0.0 mm 0.00 in0.0 mm
05:25 PM 65.6°F18.7°C 38.6°F3.7°C 37% 5.8 mph WNW9.3 kmh WNW 11.5 mph18.5 kmh 30.19 in1022.4 mb - 0.00 in0.0 mm 0.00 in0.0 mm
05:20 PM 65.6°F18.7°C 38.6°F3.7°C 37% 6.9 mph NW11.1 kmh NW 8.1 mph13.0 kmh 30.19 in1022.4 mb - 0.00 in0.0 mm 0.00 in0.0 mm
05:15 PM 65.7°F18.7°C 39.4°F4.1°C 38% 3.5 mph WNW5.6 kmh WNW 5.8 mph9.3 kmh 30.19 in1022.4 mb - 0.00 in0.0 mm 0.00 in0.0 mm
05:10 PM 65.7°F18.7°C 40.7°F4.8°C 40% 4.6 mph W7.4 kmh W 6.9 mph11.1 kmh 30.19 in1022.4 mb - 0.00 in0.0 mm 0.00 in0.0 mm
05:00 PM 65.4°F18.6°C 40.5°F4.7°C 40% 4.6 mph WSW7.4 kmh WSW 8.1 mph13.0 kmh 30.20 in1022.7 mb - 0.00 in0.0 mm 0.00 in0.0 mm
04:55 PM 65.2°F18.4°C 39.6°F4.2°C 39% 4.6 mph NW7.4 kmh NW 5.8 mph9.3 kmh 30.20 in1022.7 mb - 0.00 in0.0 mm 0.00 in0.0 mm
04:50 PM 65.0°F18.3°C 40.1°F4.5°C 40% 6.9 mph NW11.1 kmh NW 11.5 mph18.5 kmh 30.20 in1022.7 mb - 0.00 in0.0 mm 0.00 in0.0 mm
04:45 PM 64.9°F18.3°C 40.6°F4.8°C 41% 6.9 mph NW11.1 kmh NW 11.5 mph18.5 kmh 30.20 in1022.7 mb - 0.00 in0.0 mm 0.00 in0.0 mm
04:40 PM 65.0°F18.3°C 41.3°F5.2°C 42% 5.8 mph WNW9.3 kmh WNW 9.2 mph14.8 kmh 30.20 in1022.7 mb - 0.00 in0.0 mm 0.00 in0.0 mm
04:35 PM 64.3°F17.9°C 40.7°F4.8°C 42% 6.9 mph WNW11.1 kmh WNW 11.5 mph18.5 kmh 30.20 in1022.7 mb - 0.00 in0.0 mm 0.00 in0.0 mm
04:30 PM 64.1°F17.8°C 39.9°F4.4°C 41% 8.1 mph NW13.0 kmh NW 8.1 mph13.0 kmh 30.20 in1022.7 mb - 0.00 in0.0 mm 0.00 in0.0 mm
04:25 PM 64.3°F17.9°C 40.7°F4.8°C 42% 4.6 mph WNW7.4 kmh WNW 6.9 mph11.1 kmh 30.20 in1022.7 mb - 0.00 in0.0 mm 0.00 in0.0 mm
04:20 PM 64.2°F17.9°C 39.4°F4.1°C 40% 6.9 mph NW11.1 kmh NW 6.9 mph11.1 kmh 30.20 in1022.7 mb - 0.00 in0.0 mm 0.00 in0.0 mm
04:15 PM 65.2°F18.4°C 42.1°F5.6°C 43% 4.6 mph W7.4 kmh W 5.8 mph9.3 kmh 30.21 in1023.0 mb - 0.00 in0.0 mm 0.00 in0.0 mm
04:10 PM 64.2°F17.9°C 42.4°F5.8°C 45% 5.8 mph WSW9.3 kmh WSW 4.6 mph7.4 kmh 30.21 in1023.0 mb - 0.00 in0.0 mm 0.00 in0.0 mm
04:00 PM 63.2°F17.3°C 42.1°F5.6°C 46% 5.8 mph WNW9.3 kmh WNW 9.2 mph14.8 kmh 30.21 in1023.0 mb - 0.00 in0.0 mm 0.00 in0.0 mm
03:55 PM 63.1°F17.3°C 42.0°F5.6°C 46% 3.5 mph NW5.6 kmh NW 4.6 mph7.4 kmh 30.21 in1023.0 mb - 0.00 in0.0 mm 0.00 in0.0 mm
03:50 PM 62.9°F17.2°C 41.8°F5.4°C 46% 3.5 mph W5.6 kmh W 6.9 mph11.1 kmh 30.21 in1023.0 mb - 0.00 in0.0 mm 0.00 in0.0 mm
03:45 PM 63.4°F17.4°C 41.7°F5.4°C 45% 3.5 mph NW5.6 kmh NW 4.6 mph7.4 kmh 30.21 in1023.0 mb - 0.00 in0.0 mm 0.00 in0.0 mm
03:40 PM 64.1°F17.8°C 41.7°F5.4°C 44% 4.6 mph W7.4 kmh W 5.8 mph9.3 kmh 30.21 in1023.0 mb - 0.00 in0.0 mm 0.00 in0.0 mm
03:35 PM 64.6°F18.1°C 42.2°F5.7°C 44% 3.5 mph WSW5.6 kmh WSW 8.1 mph13.0 kmh 30.21 in1023.0 mb - 0.00 in0.0 mm 0.00 in0.0 mm
03:30 PM 65.3°F18.5°C 43.4°F6.3°C 45% 3.5 mph WNW5.6 kmh WNW 10.4 mph16.7 kmh 30.21 in1023.0 mb - 0.00 in0.0 mm 0.00 in0.0 mm
03:25 PM 64.7°F18.2°C 42.9°F6.1°C 45% 3.5 mph WSW5.6 kmh WSW 4.6 mph7.4 kmh 30.21 in1023.0 mb - 0.00 in0.0 mm 0.00 in0.0 mm
03:20 PM 65.4°F18.6°C 44.1°F6.7°C 46% 4.6 mph WNW7.4 kmh WNW 10.4 mph16.7 kmh 30.22 in1023.4 mb - 0.00 in0.0 mm 0.00 in0.0 mm
03:15 PM 64.6°F18.1°C 43.9°F6.6°C 47% 4.6 mph W7.4 kmh W 6.9 mph11.1 kmh 30.22 in1023.4 mb - 0.00 in0.0 mm 0.00 in0.0 mm
03:10 PM 64.3°F17.9°C 43.6°F6.4°C 47% 4.6 mph NW7.4 kmh NW 4.6 mph7.4 kmh 30.22 in1023.4 mb - 0.00 in0.0 mm 0.00 in0.0 mm
03:00 PM 63.9°F17.7°C 43.8°F6.6°C 48% 5.8 mph NNW9.3 kmh NNW 6.9 mph11.1 kmh 30.23 in1023.7 mb - 0.00 in0.0 mm 0.00 in0.0 mm
02:55 PM 64.2°F17.9°C 43.5°F6.4°C 47% 3.5 mph NNE5.6 kmh NNE 4.6 mph7.4 kmh 30.23 in1023.7 mb - 0.00 in0.0 mm 0.00 in0.0 mm
02:50 PM 64.0°F17.8°C 44.4°F6.9°C 49% 4.6 mph N7.4 kmh N 12.7 mph20.4 kmh 30.24 in1024.0 mb - 0.00 in0.0 mm 0.00 in0.0 mm
02:45 PM 63.6°F17.6°C 44.0°F6.7°C 49% 3.5 mph NW5.6 kmh NW 5.8 mph9.3 kmh 30.24 in1024.0 mb - 0.00 in0.0 mm 0.00 in0.0 mm
02:40 PM 62.6°F17.0°C 43.2°F6.2°C 49% 3.5 mph NW5.6 kmh NW 9.2 mph14.8 kmh 30.25 in1024.4 mb - 0.00 in0.0 mm 0.00 in0.0 mm
02:35 PM 63.0°F17.2°C 43.5°F6.4°C 49% 4.6 mph NW7.4 kmh NW 6.9 mph11.1 kmh 30.25 in1024.4 mb - 0.00 in0.0 mm 0.00 in0.0 mm
02:30 PM 62.1°F16.7°C 43.2°F6.2°C 50% 4.6 mph NNW7.4 kmh NNW 10.4 mph16.7 kmh 30.25 in1024.4 mb - 0.00 in0.0 mm 0.00 in0.0 mm
02:25 PM 61.7°F16.5°C 43.4°F6.3°C 51% 3.5 mph NW5.6 kmh NW 6.9 mph11.1 kmh 30.26 in1024.7 mb - 0.00 in0.0 mm 0.00 in0.0 mm
02:20 PM 60.7°F15.9°C 42.4°F5.8°C 51% 8.1 mph NW13.0 kmh NW 12.7 mph20.4 kmh 30.26 in1024.7 mb - 0.00 in0.0 mm 0.00 in0.0 mm
02:15 PM 61.1°F16.2°C 43.4°F6.3°C 52% 5.8 mph NNE9.3 kmh NNE 9.2 mph14.8 kmh 30.27 in1025.1 mb - 0.00 in0.0 mm 0.00 in0.0 mm
02:10 PM 61.0°F16.1°C 43.3°F6.3°C 52% 8.1 mph NW13.0 kmh NW 12.7 mph20.4 kmh 30.27 in1025.1 mb - 0.00 in0.0 mm 0.00 in0.0 mm
02:00 PM 59.8°F15.4°C 43.1°F6.2°C 54% 9.2 mph N14.8 kmh N 12.7 mph20.4 kmh 30.27 in1025.1 mb - 0.00 in0.0 mm 0.00 in0.0 mm
01:55 PM 59.3°F15.2°C 43.1°F6.2°C 55% 6.9 mph N11.1 kmh N 10.4 mph16.7 kmh 30.27 in1025.1 mb - 0.00 in0.0 mm 0.00 in0.0 mm
01:50 PM 59.5°F15.3°C 43.8°F6.6°C 56% 6.9 mph N11.1 kmh N 11.5 mph18.5 kmh 30.27 in1025.1 mb - 0.00 in0.0 mm 0.00 in0.0 mm
01:45 PM 59.4°F15.2°C 44.2°F6.8°C 57% 5.8 mph N9.3 kmh N 11.5 mph18.5 kmh 30.28 in1025.4 mb - 0.00 in0.0 mm 0.00 in0.0 mm
01:40 PM 59.5°F15.3°C 44.7°F7.1°C 58% 5.8 mph NNW9.3 kmh NNW 10.4 mph16.7 kmh 30.28 in1025.4 mb - 0.00 in0.0 mm 0.00 in0.0 mm
01:35 PM 59.4°F15.2°C 44.2°F6.8°C 57% 3.5 mph NNE5.6 kmh NNE 11.5 mph18.5 kmh 30.28 in1025.4 mb - 0.00 in0.0 mm 0.00 in0.0 mm
01:30 PM 58.9°F14.9°C 43.7°F6.5°C 57% 5.8 mph NW9.3 kmh NW 12.7 mph20.4 kmh 30.28 in1025.4 mb - 0.00 in0.0 mm 0.00 in0.0 mm
01:25 PM 58.9°F14.9°C 44.1°F6.7°C 58% 4.6 mph N7.4 kmh N 9.2 mph14.8 kmh 30.28 in1025.4 mb - 0.00 in0.0 mm 0.00 in0.0 mm
01:20 PM 59.4°F15.2°C 44.2°F6.8°C 57% 6.9 mph NNW11.1 kmh NNW 10.4 mph16.7 kmh 30.28 in1025.4 mb - 0.00 in0.0 mm 0.00 in0.0 mm
01:15 PM 59.5°F15.3°C 44.7°F7.1°C 58% 6.9 mph NNW11.1 kmh NNW 15.0 mph24.1 kmh 30.29 in1025.7 mb - 0.00 in0.0 mm 0.00 in0.0 mm
01:10 PM 60.0°F15.6°C 44.7°F7.1°C 57% 8.1 mph N13.0 kmh N 19.6 mph31.5 kmh 30.29 in1025.7 mb - 0.00 in0.0 mm 0.00 in0.0 mm
01:00 PM 61.2°F16.2°C 45.3°F7.4°C 56% 8.1 mph N13.0 kmh N 12.7 mph20.4 kmh 30.29 in1025.7 mb - 0.00 in0.0 mm 0.00 in0.0 mm
12:55 PM 60.6°F15.9°C 45.3°F7.4°C 57% 5.8 mph NW9.3 kmh NW 8.1 mph13.0 kmh 30.28 in1025.4 mb - 0.00 in0.0 mm 0.00 in0.0 mm
12:50 PM 58.7°F14.8°C 44.0°F6.7°C 58% 8.1 mph NNW13.0 kmh NNW 13.8 mph22.2 kmh 30.28 in1025.4 mb - 0.00 in0.0 mm 0.00 in0.0 mm
12:45 PM 58.8°F14.9°C 44.5°F6.9°C 59% 9.2 mph NW14.8 kmh NW 15.0 mph24.1 kmh 30.29 in1025.7 mb - 0.00 in0.0 mm 0.00 in0.0 mm
12:40 PM 58.8°F14.9°C 44.5°F6.9°C 59% 8.1 mph NNW13.0 kmh NNW 13.8 mph22.2 kmh 30.29 in1025.7 mb - 0.00 in0.0 mm 0.00 in0.0 mm
12:35 PM 58.9°F14.9°C 44.1°F6.7°C 58% 6.9 mph NW11.1 kmh NW 10.4 mph16.7 kmh 30.29 in1025.7 mb - 0.00 in0.0 mm 0.00 in0.0 mm
12:30 PM 59.2°F15.1°C 43.5°F6.4°C 56% 5.8 mph NNW9.3 kmh NNW 10.4 mph16.7 kmh 30.29 in1025.7 mb - 0.00 in0.0 mm 0.00 in0.0 mm
12:25 PM 59.0°F15.0°C 43.8°F6.6°C 57% 5.8 mph NW9.3 kmh NW 8.1 mph13.0 kmh 30.29 in1025.7 mb - 0.00 in0.0 mm 0.00 in0.0 mm
12:20 PM 58.4°F14.7°C 43.7°F6.5°C 58% 5.8 mph NW9.3 kmh NW 11.5 mph18.5 kmh 30.29 in1025.7 mb - 0.00 in0.0 mm 0.00 in0.0 mm
12:15 PM 58.2°F14.6°C 43.9°F6.6°C 59% 6.9 mph N11.1 kmh N 11.5 mph18.5 kmh 30.29 in1025.7 mb - 0.00 in0.0 mm 0.00 in0.0 mm
12:10 PM 57.9°F14.4°C 43.2°F6.2°C 58% 8.1 mph NNW13.0 kmh NNW 10.4 mph16.7 kmh 30.29 in1025.7 mb - 0.00 in0.0 mm 0.00 in0.0 mm
12:00 PM 58.2°F14.6°C 43.9°F6.6°C 59% 5.8 mph NW9.3 kmh NW 11.5 mph18.5 kmh 30.28 in1025.4 mb - 0.00 in0.0 mm 0.00 in0.0 mm
11:55 AM 59.0°F15.0°C 44.3°F6.8°C 58% 6.9 mph NNW11.1 kmh NNW 8.1 mph13.0 kmh 30.28 in1025.4 mb - 0.00 in0.0 mm 0.00 in0.0 mm
11:50 AM 59.0°F15.0°C 44.7°F7.1°C 59% 3.5 mph NNW5.6 kmh NNW 3.5 mph5.6 kmh 30.28 in1025.4 mb - 0.00 in0.0 mm 0.00 in0.0 mm
11:45 AM 59.2°F15.1°C 44.4°F6.9°C 58% 5.8 mph NNW9.3 kmh NNW 8.1 mph13.0 kmh 30.27 in1025.1 mb - 0.00 in0.0 mm 0.00 in0.0 mm
11:40 AM 59.5°F15.3°C 45.1°F7.3°C 59% 3.5 mph N5.6 kmh N 5.8 mph9.3 kmh 30.27 in1025.1 mb - 0.00 in0.0 mm 0.00 in0.0 mm
11:35 AM 59.5°F15.3°C 44.7°F7.1°C 58% 4.6 mph N7.4 kmh N 6.9 mph11.1 kmh 30.27 in1025.1 mb - 0.00 in0.0 mm 0.00 in0.0 mm
11:30 AM 59.4°F15.2°C 45.0°F7.2°C 59% 4.6 mph N7.4 kmh N 3.5 mph5.6 kmh 30.27 in1025.1 mb - 0.00 in0.0 mm 0.00 in0.0 mm
11:25 AM 58.7°F14.8°C 44.4°F6.9°C 59% 5.8 mph NNW9.3 kmh NNW 5.8 mph9.3 kmh 30.28 in1025.4 mb - 0.00 in0.0 mm 0.00 in0.0 mm
11:20 AM 59.0°F15.0°C 44.7°F7.1°C 59% 3.5 mph N5.6 kmh N 10.4 mph16.7 kmh 30.28 in1025.4 mb - 0.00 in0.0 mm 0.00 in0.0 mm
11:15 AM 60.0°F15.6°C 44.2°F6.8°C 56% 5.8 mph NW9.3 kmh NW 6.9 mph11.1 kmh 30.27 in1025.1 mb - 0.00 in0.0 mm 0.00 in0.0 mm
11:10 AM 60.0°F15.6°C 44.7°F7.1°C 57% 3.5 mph NE5.6 kmh NE 3.5 mph5.6 kmh 30.27 in1025.1 mb - 0.00 in0.0 mm 0.00 in0.0 mm
11:00 AM 60.2°F15.7°C 44.9°F7.2°C 57% 4.6 mph NNW7.4 kmh NNW 8.1 mph13.0 kmh 30.27 in1025.1 mb - 0.00 in0.0 mm 0.00 in0.0 mm
10:55 AM 61.2°F16.2°C 44.4°F6.9°C 54% 4.6 mph NW7.4 kmh NW 8.1 mph13.0 kmh 30.27 in1025.1 mb - 0.00 in0.0 mm 0.00 in0.0 mm
10:50 AM 60.8°F16.0°C 44.6°F7.0°C 55% 3.5 mph NW5.6 kmh NW 4.6 mph7.4 kmh 30.26 in1024.7 mb - 0.00 in0.0 mm 0.00 in0.0 mm
10:45 AM 60.4°F15.8°C 44.1°F6.7°C 55% 2.3 mph NW3.7 kmh NW 3.5 mph5.6 kmh 30.25 in1024.4 mb - 0.00 in0.0 mm 0.00 in0.0 mm
10:40 AM 61.1°F16.2°C 44.3°F6.8°C 54% 4.6 mph NW7.4 kmh NW 6.9 mph11.1 kmh 30.25 in1024.4 mb - 0.00 in0.0 mm 0.00 in0.0 mm
10:35 AM 61.1°F16.2°C 44.3°F6.8°C 54% 5.8 mph NNW9.3 kmh NNW 8.1 mph13.0 kmh 30.26 in1024.7 mb - 0.00 in0.0 mm 0.00 in0.0 mm
10:30 AM 61.3°F16.3°C 44.5°F6.9°C 54% 3.5 mph W5.6 kmh W 4.6 mph7.4 kmh 30.26 in1024.7 mb - 0.00 in0.0 mm 0.00 in0.0 mm
10:25 AM 61.0°F16.1°C 43.3°F6.3°C 52% 4.6 mph W7.4 kmh W 5.8 mph9.3 kmh 30.26 in1024.7 mb - 0.00 in0.0 mm 0.00 in0.0 mm
10:20 AM 61.4°F16.3°C 42.6°F5.9°C 50% 4.6 mph WNW7.4 kmh WNW 10.4 mph16.7 kmh 30.25 in1024.4 mb - 0.00 in0.0 mm 0.00 in0.0 mm
10:15 AM 60.7°F15.9°C 42.5°F5.8°C 51% 4.6 mph W7.4 kmh W 6.9 mph11.1 kmh 30.26 in1024.7 mb - 0.00 in0.0 mm 0.00 in0.0 mm
10:10 AM 60.6°F15.9°C 43.3°F6.3°C 53% 2.3 mph W3.7 kmh W 3.5 mph5.6 kmh 30.25 in1024.4 mb - 0.00 in0.0 mm 0.00 in0.0 mm
10:00 AM 60.0°F15.6°C 43.3°F6.3°C 54% 3.5 mph WSW5.6 kmh WSW 4.6 mph7.4 kmh 30.25 in1024.4 mb - 0.00 in0.0 mm 0.00 in0.0 mm
09:55 AM 60.5°F15.8°C 43.8°F6.6°C 54% 3.5 mph SW5.6 kmh SW 5.8 mph9.3 kmh 30.25 in1024.4 mb - 0.00 in0.0 mm 0.00 in0.0 mm
09:50 AM 60.1°F15.6°C 43.9°F6.6°C 55% 2.3 mph WSW3.7 kmh WSW 3.5 mph5.6 kmh 30.25 in1024.4 mb - 0.00 in0.0 mm 0.00 in0.0 mm
09:45 AM 60.1°F15.6°C 43.9°F6.6°C 55% 1.2 mph WSW1.9 kmh WSW 3.5 mph5.6 kmh 30.25 in1024.4 mb - 0.00 in0.0 mm 0.00 in0.0 mm
09:40 AM 60.2°F15.7°C 44.0°F6.7°C 55% 3.5 mph W5.6 kmh W 4.6 mph7.4 kmh 30.25 in1024.4 mb - 0.00 in0.0 mm 0.00 in0.0 mm
09:35 AM 60.0°F15.6°C 44.2°F6.8°C 56% 2.3 mph WSW3.7 kmh WSW 3.5 mph5.6 kmh 30.25 in1024.4 mb - 0.00 in0.0 mm 0.00 in0.0 mm
09:30 AM 59.0°F15.0°C 43.8°F6.6°C 57% 1.2 mph WSW1.9 kmh WSW 3.5 mph5.6 kmh 30.25 in1024.4 mb - 0.00 in0.0 mm 0.00 in0.0 mm
09:25 AM 58.7°F14.8°C 44.0°F6.7°C 58% 2.3 mph NW3.7 kmh NW 4.6 mph7.4 kmh 30.25 in1024.4 mb - 0.00 in0.0 mm 0.00 in0.0 mm
09:20 AM 58.3°F14.6°C 43.6°F6.4°C 58% 2.3 mph W3.7 kmh W 3.5 mph5.6 kmh 30.25 in1024.4 mb - 0.00 in0.0 mm 0.00 in0.0 mm
09:15 AM 57.8°F14.3°C 44.0°F6.7°C 60% 2.3 mph WSW3.7 kmh WSW 3.5 mph5.6 kmh 30.25 in1024.4 mb - 0.00 in0.0 mm 0.00 in0.0 mm
09:10 AM 57.5°F14.2°C 44.6°F7.0°C 62% 1.2 mph WNW1.9 kmh WNW 3.5 mph5.6 kmh 30.25 in1024.4 mb - 0.00 in0.0 mm 0.00 in0.0 mm
09:00 AM 56.3°F13.5°C 43.9°F6.6°C 63% 1.2 mph W1.9 kmh W 3.5 mph5.6 kmh 30.25 in1024.4 mb - 0.00 in0.0 mm 0.00 in0.0 mm
08:55 AM 55.8°F13.2°C 43.8°F6.6°C 64% 1.2 mph WSW1.9 kmh WSW 3.5 mph5.6 kmh 30.25 in1024.4 mb - 0.00 in0.0 mm 0.00 in0.0 mm
08:50 AM 55.4°F13.0°C 43.8°F6.6°C 65% 1.2 mph W1.9 kmh W 3.5 mph5.6 kmh 30.25 in1024.4 mb - 0.00 in0.0 mm 0.00 in0.0 mm
08:45 AM 55.1°F12.8°C 43.9°F6.6°C 66% 2.3 mph NW3.7 kmh NW 4.6 mph7.4 kmh 30.25 in1024.4 mb - 0.00 in0.0 mm 0.00 in0.0 mm
08:40 AM 54.9°F12.7°C 44.5°F6.9°C 68% 1.2 mph W1.9 kmh W 3.5 mph5.6 kmh 30.25 in1024.4 mb - 0.00 in0.0 mm 0.00 in0.0 mm
08:35 AM 54.5°F12.5°C 44.2°F6.8°C 68% 2.3 mph NW3.7 kmh NW 2.3 mph3.7 kmh 30.25 in1024.4 mb - 0.00 in0.0 mm 0.00 in0.0 mm
08:30 AM 54.4°F12.4°C 44.0°F6.7°C 68% 2.3 mph W3.7 kmh W 3.5 mph5.6 kmh 30.24 in1024.0 mb - 0.00 in0.0 mm 0.00 in0.0 mm
08:25 AM 54.0°F12.2°C 43.7°F6.5°C 68% 1.2 mph WNW1.9 kmh WNW 2.3 mph3.7 kmh 30.24 in1024.0 mb - 0.00 in0.0 mm 0.00 in0.0 mm
08:20 AM 53.7°F12.1°C 43.4°F6.3°C 68% 2.3 mph W3.7 kmh W 3.5 mph5.6 kmh 30.24 in1024.0 mb - 0.00 in0.0 mm 0.00 in0.0 mm
08:15 AM 53.6°F12.0°C 43.3°F6.3°C 68% 2.3 mph SW3.7 kmh SW 3.5 mph5.6 kmh 30.23 in1023.7 mb - 0.00 in0.0 mm 0.00 in0.0 mm
08:10 AM 53.6°F12.0°C 43.3°F6.3°C 68% 4.6 mph SW7.4 kmh SW 5.8 mph9.3 kmh 30.24 in1024.0 mb - 0.00 in0.0 mm 0.00 in0.0 mm
08:00 AM 53.9°F12.2°C 43.5°F6.4°C 68% 2.3 mph WSW3.7 kmh WSW 3.5 mph5.6 kmh 30.23 in1023.7 mb - 0.00 in0.0 mm 0.00 in0.0 mm
07:55 AM 53.7°F12.1°C 43.8°F6.6°C 69% 3.5 mph WSW5.6 kmh WSW 5.8 mph9.3 kmh 30.23 in1023.7 mb - 0.00 in0.0 mm 0.00 in0.0 mm
07:50 AM 53.6°F12.0°C 43.7°F6.5°C 69% 2.3 mph W3.7 kmh W 4.6 mph7.4 kmh 30.23 in1023.7 mb - 0.00 in0.0 mm 0.00 in0.0 mm
07:45 AM 53.5°F11.9°C 43.5°F6.4°C 69% 2.3 mph WSW3.7 kmh WSW 3.5 mph5.6 kmh 30.22 in1023.4 mb - 0.00 in0.0 mm 0.00 in0.0 mm
07:40 AM 53.4°F11.9°C 43.5°F6.4°C 69% 2.3 mph SW3.7 kmh SW 5.8 mph9.3 kmh 30.21 in1023.0 mb - 0.00 in0.0 mm 0.00 in0.0 mm
07:35 AM 53.3°F11.8°C 43.4°F6.3°C 69% 2.3 mph SW3.7 kmh SW 4.6 mph7.4 kmh 30.21 in1023.0 mb - 0.00 in0.0 mm 0.00 in0.0 mm
07:30 AM 53.3°F11.8°C 43.4°F6.3°C 69% 2.3 mph SW3.7 kmh SW 3.5 mph5.6 kmh 30.21 in1023.0 mb - 0.00 in0.0 mm 0.00 in0.0 mm
07:25 AM 53.3°F11.8°C 43.4°F6.3°C 69% 2.3 mph SW3.7 kmh SW 3.5 mph5.6 kmh 30.21 in1023.0 mb - 0.00 in0.0 mm 0.00 in0.0 mm
07:20 AM 53.3°F11.8°C 43.4°F6.3°C 69% 2.3 mph SW3.7 kmh SW 3.5 mph5.6 kmh 30.21 in1023.0 mb - 0.00 in0.0 mm 0.00 in0.0 mm
07:15 AM 53.3°F11.8°C 43.3°F6.3°C 69% 2.3 mph SW3.7 kmh SW 4.6 mph7.4 kmh 30.21 in1023.0 mb - 0.00 in0.0 mm 0.00 in0.0 mm
07:10 AM 53.1°F11.7°C 43.2°F6.2°C 69% 3.5 mph SW5.6 kmh SW 3.5 mph5.6 kmh 30.21 in1023.0 mb - 0.00 in0.0 mm 0.00 in0.0 mm
07:00 AM 53.1°F11.7°C 43.2°F6.2°C 69% 2.3 mph SW3.7 kmh SW 3.5 mph5.6 kmh 30.21 in1023.0 mb - 0.00 in0.0 mm 0.00 in0.0 mm
06:55 AM 53.0°F11.7°C 43.1°F6.2°C 69% 2.3 mph SW3.7 kmh SW 3.5 mph5.6 kmh 30.21 in1023.0 mb - 0.00 in0.0 mm 0.00 in0.0 mm
06:50 AM 53.2°F11.8°C 42.9°F6.1°C 68% 1.2 mph SW1.9 kmh SW 3.5 mph5.6 kmh 30.20 in1022.7 mb - 0.00 in0.0 mm 0.00 in0.0 mm
06:45 AM 53.3°F11.8°C 43.0°F6.1°C 68% 2.3 mph SW3.7 kmh SW 3.5 mph5.6 kmh 30.20 in1022.7 mb - 0.00 in0.0 mm 0.00 in0.0 mm
06:40 AM 53.3°F11.8°C 43.0°F6.1°C 68% 2.3 mph SW3.7 kmh SW 3.5 mph5.6 kmh 30.20 in1022.7 mb - 0.00 in0.0 mm 0.00 in0.0 mm
06:35 AM 53.4°F11.9°C 43.1°F6.2°C 68% 1.2 mph SW1.9 kmh SW 3.5 mph5.6 kmh 30.20 in1022.7 mb - 0.00 in0.0 mm 0.00 in0.0 mm
06:30 AM 53.6°F12.0°C 42.9°F6.1°C 67% 1.2 mph S1.9 kmh S 3.5 mph5.6 kmh 30.20 in1022.7 mb - 0.00 in0.0 mm 0.00 in0.0 mm
06:25 AM 53.8°F12.1°C 43.1°F6.2°C 67% 2.3 mph SW3.7 kmh SW 4.6 mph7.4 kmh 30.20 in1022.7 mb - 0.00 in0.0 mm 0.00 in0.0 mm
06:20 AM 53.9°F12.2°C 43.2°F6.2°C 67% 2.3 mph SW3.7 kmh SW 5.8 mph9.3 kmh 30.19 in1022.4 mb - 0.00 in0.0 mm 0.00 in0.0 mm
06:15 AM 53.9°F12.2°C 42.8°F6.0°C 66% 2.3 mph SW3.7 kmh SW 3.5 mph5.6 kmh 30.19 in1022.4 mb - 0.00 in0.0 mm 0.00 in0.0 mm
06:10 AM 54.1°F12.3°C 43.0°F6.1°C 66% 2.3 mph SW3.7 kmh SW 5.8 mph9.3 kmh 30.19 in1022.4 mb - 0.00 in0.0 mm 0.00 in0.0 mm
06:00 AM 54.2°F12.3°C 43.1°F6.2°C 66% 1.2 mph SSW1.9 kmh SSW 3.5 mph5.6 kmh 30.19 in1022.4 mb - 0.00 in0.0 mm 0.00 in0.0 mm
05:55 AM 54.3°F12.4°C 42.8°F6.0°C 65% 2.3 mph SW3.7 kmh SW 3.5 mph5.6 kmh 30.19 in1022.4 mb - 0.00 in0.0 mm 0.00 in0.0 mm
05:50 AM 54.3°F12.4°C 42.8°F6.0°C 65% 2.3 mph SW3.7 kmh SW 4.6 mph7.4 kmh 30.19 in1022.4 mb - 0.00 in0.0 mm 0.00 in0.0 mm
05:45 AM 54.3°F12.4°C 42.8°F6.0°C 65% 3.5 mph SSW5.6 kmh SSW 4.6 mph7.4 kmh 30.19 in1022.4 mb - 0.00 in0.0 mm 0.00 in0.0 mm
05:40 AM 54.2°F12.3°C 42.7°F5.9°C 65% 1.2 mph SW1.9 kmh SW 4.6 mph7.4 kmh 30.18 in1022.0 mb - 0.00 in0.0 mm 0.00 in0.0 mm
05:35 AM 54.2°F12.3°C 42.7°F5.9°C 65% 1.2 mph SSW1.9 kmh SSW 3.5 mph5.6 kmh 30.19 in1022.4 mb - 0.00 in0.0 mm 0.00 in0.0 mm
05:30 AM 54.2°F12.3°C 42.6°F5.9°C 65% 2.3 mph S3.7 kmh S 3.5 mph5.6 kmh 30.18 in1022.0 mb - 0.00 in0.0 mm 0.00 in0.0 mm
05:25 AM 54.1°F12.3°C 42.6°F5.9°C 65% 2.3 mph SSW3.7 kmh SSW 3.5 mph5.6 kmh 30.18 in1022.0 mb - 0.00 in0.0 mm 0.00 in0.0 mm
05:20 AM 54.0°F12.2°C 42.9°F6.1°C 66% 1.2 mph SSW1.9 kmh SSW 3.5 mph5.6 kmh 30.18 in1022.0 mb - 0.00 in0.0 mm 0.00 in0.0 mm
05:15 AM 53.8°F12.1°C 42.7°F5.9°C 66% 1.2 mph S1.9 kmh S 2.3 mph3.7 kmh 30.18 in1022.0 mb - 0.00 in0.0 mm 0.00 in0.0 mm
05:10 AM 53.8°F12.1°C 42.7°F5.9°C 66% 1.2 mph SSE1.9 kmh SSE 2.3 mph3.7 kmh 30.18 in1022.0 mb - 0.00 in0.0 mm 0.00 in0.0 mm
05:00 AM 53.4°F11.9°C 41.9°F5.5°C 65% 2.3 mph S3.7 kmh S 3.5 mph5.6 kmh 30.18 in1022.0 mb - 0.00 in0.0 mm 0.00 in0.0 mm
04:55 AM 53.1°F11.7°C 42.1°F5.6°C 66% 2.3 mph SSW3.7 kmh SSW 3.5 mph5.6 kmh 30.18 in1022.0 mb - 0.00 in0.0 mm 0.00 in0.0 mm
04:50 AM 52.7°F11.5°C 41.6°F5.3°C 66% 1.2 mph S1.9 kmh S 3.5 mph5.6 kmh 30.19 in1022.4 mb - 0.00 in0.0 mm 0.00 in0.0 mm
04:45 AM 52.2°F11.2°C 41.2°F5.1°C 66% Calm Calm 1.2 mph1.9 kmh 30.19 in1022.4 mb - 0.00 in0.0 mm 0.00 in0.0 mm
04:40 AM 52.4°F11.3°C 41.3°F5.2°C 66% 1.2 mph S1.9 kmh S 2.3 mph3.7 kmh 30.19 in1022.4 mb - 0.00 in0.0 mm 0.00 in0.0 mm
04:35 AM 52.6°F11.4°C 41.2°F5.1°C 65% 1.2 mph S1.9 kmh S 2.3 mph3.7 kmh 30.18 in1022.0 mb - 0.00 in0.0 mm 0.00 in0.0 mm
04:30 AM 52.3°F11.3°C 40.8°F4.9°C 65% Calm Calm -- 30.19 in1022.4 mb - 0.00 in0.0 mm 0.00 in0.0 mm
04:25 AM 52.2°F11.2°C 40.8°F4.9°C 65% 1.2 mph S1.9 kmh S -- 30.18 in1022.0 mb - 0.00 in0.0 mm 0.00 in0.0 mm
04:20 AM 52.6°F11.4°C 40.4°F4.7°C 63% Calm Calm -- 30.19 in1022.4 mb - 0.00 in0.0 mm 0.00 in0.0 mm
04:15 AM 53.0°F11.7°C 40.7°F4.8°C 63% 1.2 mph S1.9 kmh S 3.5 mph5.6 kmh 30.18 in1022.0 mb - 0.00 in0.0 mm 0.00 in0.0 mm
04:10 AM 52.6°F11.4°C 40.3°F4.6°C 63% Calm Calm 1.2 mph1.9 kmh 30.18 in1022.0 mb - 0.00 in0.0 mm 0.00 in0.0 mm
04:00 AM 52.8°F11.6°C 39.7°F4.3°C 61% Calm Calm 1.2 mph1.9 kmh 30.18 in1022.0 mb - 0.00 in0.0 mm 0.00 in0.0 mm
03:55 AM 53.3°F11.8°C 39.8°F4.3°C 60% Calm Calm -- 30.18 in1022.0 mb - 0.00 in0.0 mm 0.00 in0.0 mm
03:50 AM 53.7°F12.1°C 39.7°F4.3°C 59% Calm Calm 1.2 mph1.9 kmh 30.18 in1022.0 mb - 0.00 in0.0 mm 0.00 in0.0 mm
03:45 AM 54.2°F12.3°C 39.7°F4.3°C 58% 1.2 mph S1.9 kmh S 2.3 mph3.7 kmh 30.18 in1022.0 mb - 0.00 in0.0 mm 0.00 in0.0 mm
03:40 AM 54.6°F12.6°C 40.1°F4.5°C 58% Calm Calm 1.2 mph1.9 kmh 30.19 in1022.4 mb - 0.00 in0.0 mm 0.00 in0.0 mm
03:35 AM 54.6°F12.6°C 39.7°F4.3°C 57% 1.2 mph SE1.9 kmh SE 2.3 mph3.7 kmh 30.19 in1022.4 mb - 0.00 in0.0 mm 0.00 in0.0 mm
03:30 AM 55.0°F12.8°C 39.6°F4.2°C 56% 1.2 mph SSE1.9 kmh SSE 3.5 mph5.6 kmh 30.19 in1022.4 mb - 0.00 in0.0 mm 0.00 in0.0 mm
03:25 AM 55.4°F13.0°C 39.5°F4.2°C 55% 1.2 mph SSE1.9 kmh SSE 3.5 mph5.6 kmh 30.19 in1022.4 mb - 0.00 in0.0 mm 0.00 in0.0 mm
03:20 AM 55.6°F13.1°C 39.7°F4.3°C 55% 1.2 mph SE1.9 kmh SE 3.5 mph5.6 kmh 30.19 in1022.4 mb - 0.00 in0.0 mm 0.00 in0.0 mm
03:15 AM 55.8°F13.2°C 39.4°F4.1°C 54% 1.2 mph SSE1.9 kmh SSE 3.5 mph5.6 kmh 30.19 in1022.4 mb - 0.00 in0.0 mm 0.00 in0.0 mm
03:10 AM 56.0°F13.3°C 39.6°F4.2°C 54% 1.2 mph SSE1.9 kmh SSE 3.5 mph5.6 kmh 30.19 in1022.4 mb - 0.00 in0.0 mm 0.00 in0.0 mm
03:00 AM 56.2°F13.4°C 39.3°F4.1°C 53% 2.3 mph SSE3.7 kmh SSE 3.5 mph5.6 kmh 30.19 in1022.4 mb - 0.00 in0.0 mm 0.00 in0.0 mm
02:55 AM 56.6°F13.7°C 39.2°F4.0°C 52% 2.3 mph S3.7 kmh S 3.5 mph5.6 kmh 30.19 in1022.4 mb - 0.00 in0.0 mm 0.00 in0.0 mm
02:50 AM 56.7°F13.7°C 39.2°F4.0°C 52% 3.5 mph SSE5.6 kmh SSE 4.6 mph7.4 kmh 30.19 in1022.4 mb - 0.00 in0.0 mm 0.00 in0.0 mm
02:45 AM 56.6°F13.7°C 39.2°F4.0°C 52% 2.3 mph SE3.7 kmh SE 3.5 mph5.6 kmh 30.19 in1022.4 mb - 0.00 in0.0 mm 0.00 in0.0 mm
02:40 AM 56.7°F13.7°C 39.3°F4.1°C 52% 2.3 mph SE3.7 kmh SE 4.6 mph7.4 kmh 30.19 in1022.4 mb - 0.00 in0.0 mm 0.00 in0.0 mm
02:35 AM 56.8°F13.8°C 38.9°F3.8°C 51% 2.3 mph SE3.7 kmh SE 4.6 mph7.4 kmh 30.19 in1022.4 mb - 0.00 in0.0 mm 0.00 in0.0 mm
02:30 AM 57.1°F13.9°C 39.1°F3.9°C 51% 2.3 mph SSE3.7 kmh SSE 3.5 mph5.6 kmh 30.19 in1022.4 mb - 0.00 in0.0 mm 0.00 in0.0 mm
02:25 AM 57.0°F13.9°C 39.0°F3.9°C 51% 2.3 mph SSE3.7 kmh SSE 5.8 mph9.3 kmh 30.19 in1022.4 mb - 0.00 in0.0 mm 0.00 in0.0 mm
02:20 AM 57.0°F13.9°C 39.0°F3.9°C 51% 3.5 mph SSE5.6 kmh SSE 3.5 mph5.6 kmh 30.19 in1022.4 mb - 0.00 in0.0 mm 0.00 in0.0 mm
02:15 AM 56.9°F13.8°C 39.5°F4.2°C 52% 2.3 mph SSE3.7 kmh SSE 4.6 mph7.4 kmh 30.19 in1022.4 mb - 0.00 in0.0 mm 0.00 in0.0 mm
02:10 AM 56.5°F13.6°C 39.6°F4.2°C 53% 2.3 mph SSE3.7 kmh SSE 3.5 mph5.6 kmh 30.19 in1022.4 mb - 0.00 in0.0 mm 0.00 in0.0 mm
02:00 AM 56.2°F13.4°C 39.3°F4.1°C 53% 1.2 mph SSE1.9 kmh SSE 2.3 mph3.7 kmh 30.20 in1022.7 mb - 0.00 in0.0 mm 0.00 in0.0 mm
01:55 AM 56.1°F13.4°C 39.2°F4.0°C 53% 1.2 mph SSE1.9 kmh SSE 2.3 mph3.7 kmh 30.20 in1022.7 mb - 0.00 in0.0 mm 0.00 in0.0 mm
01:50 AM 56.2°F13.4°C 39.2°F4.0°C 53% 1.2 mph SSE1.9 kmh SSE 2.3 mph3.7 kmh 30.20 in1022.7 mb - 0.00 in0.0 mm 0.00 in0.0 mm
01:45 AM 56.5°F13.6°C 39.6°F4.2°C 53% 2.3 mph S3.7 kmh S 3.5 mph5.6 kmh 30.20 in1022.7 mb - 0.00 in0.0 mm 0.00 in0.0 mm
01:40 AM 56.7°F13.7°C 39.3°F4.1°C 52% 1.2 mph S1.9 kmh S 3.5 mph5.6 kmh 30.20 in1022.7 mb - 0.00 in0.0 mm 0.00 in0.0 mm
01:35 AM 56.6°F13.7°C 39.2°F4.0°C 52% 2.3 mph SSE3.7 kmh SSE 3.5 mph5.6 kmh 30.19 in1022.4 mb - 0.00 in0.0 mm 0.00 in0.0 mm
01:30 AM 56.4°F13.6°C 39.5°F4.2°C 53% 2.3 mph SSE3.7 kmh SSE 4.6 mph7.4 kmh 30.19 in1022.4 mb - 0.00 in0.0 mm 0.00 in0.0 mm
01:25 AM 56.2°F13.4°C 39.3°F4.1°C 53% 2.3 mph SSE3.7 kmh SSE 3.5 mph5.6 kmh 30.19 in1022.4 mb - 0.00 in0.0 mm 0.00 in0.0 mm
01:20 AM 56.2°F13.4°C 39.8°F4.3°C 54% 2.3 mph SSE3.7 kmh SSE 4.6 mph7.4 kmh 30.19 in1022.4 mb - 0.00 in0.0 mm 0.00 in0.0 mm
01:15 AM 56.0°F13.3°C 39.1°F3.9°C 53% 2.3 mph SSE3.7 kmh SSE 3.5 mph5.6 kmh 30.19 in1022.4 mb - 0.00 in0.0 mm 0.00 in0.0 mm
01:10 AM 55.7°F13.2°C 39.3°F4.1°C 54% 2.3 mph SSE3.7 kmh SSE 3.5 mph5.6 kmh 30.20 in1022.7 mb - 0.00 in0.0 mm 0.00 in0.0 mm
01:00 AM 55.6°F13.1°C 39.3°F4.1°C 54% 2.3 mph SE3.7 kmh SE 3.5 mph5.6 kmh 30.19 in1022.4 mb - 0.00 in0.0 mm 0.00 in0.0 mm
12:55 AM 55.7°F13.2°C 39.3°F4.1°C 54% 1.2 mph SE1.9 kmh SE 3.5 mph5.6 kmh 30.20 in1022.7 mb - 0.00 in0.0 mm 0.00 in0.0 mm
12:50 AM 55.9°F13.3°C 39.5°F4.2°C 54% 1.2 mph SSE1.9 kmh SSE 3.5 mph5.6 kmh 30.20 in1022.7 mb - 0.00 in0.0 mm 0.00 in0.0 mm
12:45 AM 56.0°F13.3°C 39.6°F4.2°C 54% 1.2 mph SSE1.9 kmh SSE 3.5 mph5.6 kmh 30.20 in1022.7 mb - 0.00 in0.0 mm 0.00 in0.0 mm
12:40 AM 55.7°F13.2°C 39.8°F4.3°C 55% 2.3 mph SSE3.7 kmh SSE 3.5 mph5.6 kmh 30.20 in1022.7 mb - 0.00 in0.0 mm 0.00 in0.0 mm
12:35 AM 55.7°F13.2°C 39.8°F4.3°C 55% 1.2 mph SSE1.9 kmh SSE 3.5 mph5.6 kmh 30.20 in1022.7 mb - 0.00 in0.0 mm 0.00 in0.0 mm
12:30 AM 55.4°F13.0°C 40.4°F4.7°C 57% 2.3 mph SE3.7 kmh SE 3.5 mph5.6 kmh 30.20 in1022.7 mb - 0.00 in0.0 mm 0.00 in0.0 mm
12:25 AM 54.9°F12.7°C 40.4°F4.7°C 58% 2.3 mph SE3.7 kmh SE 3.5 mph5.6 kmh 30.20 in1022.7 mb - 0.00 in0.0 mm 0.00 in0.0 mm
12:20 AM 54.2°F12.3°C 40.2°F4.6°C 59% 2.3 mph SE3.7 kmh SE 3.5 mph5.6 kmh 30.20 in1022.7 mb - 0.00 in0.0 mm 0.00 in0.0 mm
12:15 AM 53.8°F12.1°C 40.3°F4.6°C 60% 1.2 mph S1.9 kmh S 2.3 mph3.7 kmh 30.20 in1022.7 mb - 0.00 in0.0 mm 0.00 in0.0 mm
12:10 AM 53.6°F12.0°C 40.0°F4.4°C 60% 2.3 mph SE3.7 kmh SE 3.5 mph5.6 kmh 30.20 in1022.7 mb - 0.00 in0.0 mm 0.00 in0.0 mm
12:00 AM 53.3°F11.8°C 40.2°F4.6°C 61% 1.2 mph SE1.9 kmh SE 1.2 mph1.9 kmh 30.20 in1022.7 mb - 0.00 in0.0 mm 0.00 in0.0 mm